createdAt,value
2023-03-19T00:01:07.453Z,100958.73
2023-03-19T00:02:18.332Z,100958.98
2023-03-19T00:04:42.924Z,100949.20
2023-03-19T00:05:54.112Z,100962.02
2023-03-19T00:07:03.938Z,100958.52
2023-03-19T00:09:29.137Z,100957.97
2023-03-19T00:10:41.121Z,100951.96
2023-03-19T00:11:51.591Z,100953.66
2023-03-19T00:13:02.153Z,100954.52
2023-03-19T00:14:12.539Z,100952.72
2023-03-19T00:15:21.624Z,100950.05
2023-03-19T00:16:31.107Z,100958.05
2023-03-19T00:17:41.132Z,100956.33
2023-03-19T00:20:06.626Z,100947.02
2023-03-19T00:21:16.212Z,100949.05
2023-03-19T00:22:25.253Z,100946.33
2023-03-19T00:23:35.175Z,100942.70
2023-03-19T00:24:46.266Z,100936.47
2023-03-19T00:25:55.182Z,100932.00
2023-03-19T00:27:05.190Z,100936.47
2023-03-19T00:28:14.386Z,100932.95
2023-03-19T00:29:23.656Z,100934.66
2023-03-19T00:30:32.380Z,100933.00
2023-03-19T00:31:41.572Z,100928.64
2023-03-19T00:32:52.223Z,100926.16
2023-03-19T00:34:02.188Z,100929.78
2023-03-19T00:35:11.797Z,100925.45
2023-03-19T00:36:23.890Z,100929.88
2023-03-19T00:37:35.979Z,100929.13
2023-03-19T00:38:46.912Z,100938.77
2023-03-19T00:39:55.726Z,100932.44
2023-03-19T00:41:08.018Z,100942.13
2023-03-19T00:42:17.635Z,100939.66
2023-03-19T00:43:27.721Z,100936.16
2023-03-19T00:45:53.289Z,100924.23
2023-03-19T00:47:01.705Z,100929.83
2023-03-19T00:48:11.791Z,100925.39
2023-03-19T00:49:21.729Z,100927.16
2023-03-19T00:50:31.197Z,100925.47
2023-03-19T00:51:42.630Z,100932.59
2023-03-19T00:52:55.603Z,100933.50
2023-03-19T00:54:06.378Z,100931.78
2023-03-19T00:56:32.417Z,100921.14
2023-03-19T00:57:41.295Z,100924.57
2023-03-19T00:58:51.058Z,100921.16
2023-03-19T00:59:59.506Z,100931.03
2023-03-19T01:02:26.165Z,100919.20
2023-03-19T01:03:36.884Z,100923.88
2023-03-19T01:04:50.518Z,100922.87
2023-03-19T01:05:59.680Z,100919.16
2023-03-19T01:07:09.543Z,100921.70
2023-03-19T01:08:19.940Z,100911.11
2023-03-19T01:09:29.779Z,100914.78
2023-03-19T01:10:39.314Z,100910.37
2023-03-19T01:11:48.889Z,100913.89
2023-03-19T01:12:57.982Z,100912.17
2023-03-19T01:14:06.976Z,100912.94
2023-03-19T01:16:34.868Z,100903.63
2023-03-19T01:17:45.215Z,100915.45
2023-03-19T01:18:54.156Z,100911.97
2023-03-19T01:20:07.636Z,100913.73
2023-03-19T01:21:17.733Z,100908.41
2023-03-19T01:22:29.385Z,100917.24
2023-03-19T01:23:41.451Z,100904.86
2023-03-19T01:24:51.106Z,100906.66
2023-03-19T01:26:00.857Z,100908.47
2023-03-19T01:27:13.336Z,100905.91
2023-03-19T01:28:24.676Z,100905.95
2023-03-19T01:29:36.166Z,100907.86
2023-03-19T01:30:47.921Z,100910.53
2023-03-19T01:32:14.186Z,100910.53
2023-03-19T01:33:43.048Z,100909.62
2023-03-19T01:34:54.105Z,100904.26
2023-03-19T01:36:05.181Z,100905.21
2023-03-19T01:38:35.710Z,100908.77
2023-03-19T01:39:47.214Z,100910.92
2023-03-19T01:40:57.554Z,100910.06
2023-03-19T01:42:09.257Z,100913.62
2023-03-19T01:43:37.382Z,100911.97
2023-03-19T01:44:50.520Z,100917.38
2023-03-19T01:46:29.072Z,100908.59
2023-03-19T01:49:13.595Z,100904.09
2023-03-19T01:51:58.975Z,100920.75
2023-03-19T01:53:17.287Z,100912.97
2023-03-19T01:54:30.401Z,100912.91
2023-03-19T01:55:48.294Z,100917.19
2023-03-19T01:58:31.673Z,100914.13
2023-03-19T02:01:03.099Z,100911.37
2023-03-19T02:02:17.524Z,100920.52
2023-03-19T02:03:26.787Z,100921.36
2023-03-19T02:04:41.321Z,100916.85
2023-03-19T02:05:52.438Z,100924.06
2023-03-19T02:07:03.985Z,100923.22
2023-03-19T02:08:16.458Z,100923.36
2023-03-19T02:09:29.017Z,100922.66
2023-03-19T02:10:49.273Z,100921.75
2023-03-19T02:12:02.365Z,100917.34
2023-03-19T02:13:14.081Z,100923.70
2023-03-19T02:14:23.584Z,100919.33
2023-03-19T02:15:33.502Z,100917.63
2023-03-19T02:16:42.927Z,100916.91
2023-03-19T02:17:52.050Z,100922.37
2023-03-19T02:19:01.798Z,100926.78
2023-03-19T02:20:34.836Z,100920.47
2023-03-19T02:21:45.517Z,100922.13
2023-03-19T02:23:18.014Z,100924.83
2023-03-19T02:25:58.908Z,100926.40
2023-03-19T02:27:14.780Z,100927.64
2023-03-19T02:28:26.535Z,100923.22
2023-03-19T02:29:35.485Z,100925.88
2023-03-19T02:30:45.813Z,100932.05
2023-03-19T02:31:54.652Z,100927.59
2023-03-19T02:33:06.377Z,100932.89
2023-03-19T02:35:35.865Z,100930.72
2023-03-19T02:38:06.644Z,100930.91
2023-03-19T02:41:01.880Z,100928.26
2023-03-19T02:42:11.745Z,100925.83
2023-03-19T02:43:22.396Z,100939.06
2023-03-19T02:44:33.462Z,100928.39
2023-03-19T02:45:43.952Z,100931.91
2023-03-19T02:46:53.150Z,100925.64
2023-03-19T02:48:03.085Z,100935.33
2023-03-19T02:49:12.278Z,100930.86
2023-03-19T02:50:22.471Z,100937.03
2023-03-19T02:51:31.372Z,100927.35
2023-03-19T02:52:40.599Z,100930.91
2023-03-19T02:53:49.005Z,100931.85
2023-03-19T02:54:58.525Z,100930.95
2023-03-19T02:56:08.983Z,100937.12
2023-03-19T02:58:33.445Z,100927.11
2023-03-19T02:59:42.766Z,100932.67
2023-03-19T03:00:54.148Z,100938.87
2023-03-19T03:02:03.799Z,100934.38
2023-03-19T03:03:14.068Z,100936.22
2023-03-19T03:04:23.461Z,100940.64
2023-03-19T03:05:34.446Z,100942.34
2023-03-19T03:06:44.088Z,100945.05
2023-03-19T03:07:53.425Z,100939.83
2023-03-19T03:09:03.712Z,100942.48
2023-03-19T03:10:13.991Z,100945.14
2023-03-19T03:11:23.688Z,100946.91
2023-03-19T03:12:33.348Z,100945.20
2023-03-19T03:13:42.882Z,100951.50
2023-03-19T03:14:52.526Z,100942.67
2023-03-19T03:16:02.374Z,100944.47
2023-03-19T03:17:11.308Z,100946.19
2023-03-19T03:18:20.356Z,100943.48
2023-03-19T03:19:30.128Z,100941.19
2023-03-19T03:20:40.070Z,100939.88
2023-03-19T03:21:51.033Z,100943.48
2023-03-19T03:23:01.512Z,100942.53
2023-03-19T03:24:10.406Z,100935.66
2023-03-19T03:25:20.069Z,100935.09
2023-03-19T03:26:30.177Z,100945.72
2023-03-19T03:28:55.440Z,100934.80
2023-03-19T03:30:08.520Z,100942.25
2023-03-19T03:31:20.313Z,100942.30
2023-03-19T03:32:29.313Z,100939.64
2023-03-19T03:33:39.250Z,100944.01
2023-03-19T03:34:48.952Z,100936.89
2023-03-19T03:35:57.670Z,100935.91
2023-03-19T03:37:07.190Z,100942.89
2023-03-19T03:38:16.232Z,100940.14
2023-03-19T03:39:26.987Z,100941.99
2023-03-19T03:40:38.073Z,100938.52
2023-03-19T03:41:47.257Z,100939.42
2023-03-19T03:42:56.755Z,100950.25
2023-03-19T03:44:07.521Z,100944.12
2023-03-19T03:45:17.238Z,100942.79
2023-03-19T03:46:27.730Z,100940.14
2023-03-19T03:47:37.879Z,100949.89
2023-03-19T03:50:05.780Z,100942.91
2023-03-19T03:51:15.002Z,100948.63
2023-03-19T03:52:24.127Z,100942.53
2023-03-19T03:53:33.066Z,100947.95
2023-03-19T03:54:43.204Z,100948.03
2023-03-19T03:55:53.315Z,100944.56
2023-03-19T03:57:05.680Z,100948.18
2023-03-19T03:58:15.312Z,100952.55
2023-03-19T03:59:25.879Z,100951.73
2023-03-19T04:00:35.843Z,100957.19
2023-03-19T04:01:45.024Z,100950.23
2023-03-19T04:02:55.204Z,100949.30
2023-03-19T04:05:20.536Z,100942.91
2023-03-19T04:06:31.110Z,100949.41
2023-03-19T04:07:43.233Z,100945.80
2023-03-19T04:08:52.903Z,100946.58
2023-03-19T04:10:03.435Z,100947.39
2023-03-19T04:11:13.450Z,100942.84
2023-03-19T04:12:22.677Z,100947.02
2023-03-19T04:13:34.346Z,100940.62
2023-03-19T04:14:44.013Z,100943.11
2023-03-19T04:15:56.044Z,100949.12
2023-03-19T04:17:06.005Z,100941.93
2023-03-19T04:18:15.210Z,100939.20
2023-03-19T04:19:24.862Z,100943.48
2023-03-19T04:20:34.878Z,100938.91
2023-03-19T04:21:45.480Z,100939.69
2023-03-19T04:22:54.491Z,100937.92
2023-03-19T04:25:41.458Z,100933.08
2023-03-19T04:26:52.415Z,100938.61
2023-03-19T04:28:02.059Z,100928.89
2023-03-19T04:29:11.175Z,100932.41
2023-03-19T04:30:21.808Z,100931.55
2023-03-19T04:31:31.053Z,100942.98
2023-03-19T04:32:40.731Z,100935.83
2023-03-19T04:33:50.421Z,100931.33
2023-03-19T04:34:59.017Z,100936.59
2023-03-19T04:36:08.112Z,100934.84
2023-03-19T04:37:17.774Z,100930.47
2023-03-19T04:38:29.670Z,100930.65
2023-03-19T04:40:56.661Z,100935.06
2023-03-19T04:43:22.974Z,100928.97
2023-03-19T04:44:33.130Z,100938.95
2023-03-19T04:45:43.584Z,100932.78
2023-03-19T04:46:53.451Z,100939.93
2023-03-19T04:48:04.282Z,100933.80
2023-03-19T04:49:14.809Z,100936.50
2023-03-19T04:51:38.905Z,100937.02
2023-03-19T04:52:49.721Z,100932.74
2023-03-19T04:54:00.508Z,100933.52
2023-03-19T04:55:11.031Z,100933.30
2023-03-19T04:56:39.355Z,100933.08
2023-03-19T04:57:48.626Z,100931.16
2023-03-19T04:59:00.224Z,100939.92
2023-03-19T05:00:10.688Z,100931.83
2023-03-19T05:01:21.603Z,100937.95
2023-03-19T05:02:33.343Z,100933.53
2023-03-19T05:03:42.248Z,100933.63
2023-03-19T05:04:51.897Z,100945.15
2023-03-19T05:06:00.568Z,100935.30
2023-03-19T05:07:12.177Z,100936.83
2023-03-19T05:09:36.950Z,100931.67
2023-03-19T05:10:46.995Z,100937.22
2023-03-19T05:11:56.721Z,100941.63
2023-03-19T05:13:07.307Z,100936.22
2023-03-19T05:14:18.892Z,100929.92
2023-03-19T05:15:30.370Z,100930.86
2023-03-19T05:16:40.877Z,100935.23
2023-03-19T05:17:50.592Z,100933.42
2023-03-19T05:19:01.919Z,100935.17
2023-03-19T05:20:13.780Z,100933.33
2023-03-19T05:22:40.188Z,100928.72
2023-03-19T05:25:07.792Z,100927.81
2023-03-19T05:26:18.185Z,100930.62
2023-03-19T05:27:29.049Z,100923.50
2023-03-19T05:28:48.584Z,100930.42
2023-03-19T05:30:00.831Z,100932.04
2023-03-19T05:31:14.907Z,100933.70
2023-03-19T05:32:26.472Z,100936.26
2023-03-19T05:33:35.647Z,100937.97
2023-03-19T05:35:59.532Z,100929.39
2023-03-19T05:37:11.474Z,100930.50
2023-03-19T05:38:21.268Z,100924.17
2023-03-19T05:39:32.057Z,100924.05
2023-03-19T05:40:44.584Z,100924.86
2023-03-19T05:41:55.760Z,100920.34
2023-03-19T05:43:06.997Z,100916.69
2023-03-19T05:44:16.655Z,100920.98
2023-03-19T05:45:49.425Z,100921.84
2023-03-19T05:47:00.940Z,100924.34
2023-03-19T05:48:11.777Z,100922.48
2023-03-19T05:49:21.990Z,100915.30
2023-03-19T05:51:47.632Z,100924.44
2023-03-19T05:52:58.222Z,100918.48
2023-03-19T05:54:07.037Z,100918.33
2023-03-19T05:55:18.066Z,100928.11
2023-03-19T05:56:29.304Z,100923.64
2023-03-19T05:57:46.489Z,100920.12
2023-03-19T05:59:00.590Z,100927.22
2023-03-19T06:00:14.894Z,100932.48
2023-03-19T06:02:39.080Z,100924.91
2023-03-19T06:03:58.552Z,100925.19
2023-03-19T06:05:08.906Z,100933.91
2023-03-19T06:06:17.838Z,100931.03
2023-03-19T06:07:28.852Z,100940.61
2023-03-19T06:08:39.598Z,100939.65
2023-03-19T06:09:51.773Z,100935.22
2023-03-19T06:11:00.955Z,100927.92
2023-03-19T06:12:10.373Z,100941.97
2023-03-19T06:14:56.313Z,100934.20
2023-03-19T06:16:07.622Z,100932.61
2023-03-19T06:17:19.053Z,100933.41
2023-03-19T06:18:28.697Z,100928.92
2023-03-19T06:19:37.246Z,100937.72
2023-03-19T06:20:48.707Z,100936.75
2023-03-19T06:21:59.378Z,100941.97
2023-03-19T06:23:09.185Z,100933.92
2023-03-19T06:24:18.900Z,100933.78
2023-03-19T06:25:28.085Z,100936.22
2023-03-19T06:27:53.537Z,100928.32
2023-03-19T06:29:05.609Z,100940.98
2023-03-19T06:30:15.825Z,100936.44
2023-03-19T06:31:25.216Z,100941.70
2023-03-19T06:32:38.547Z,100937.27
2023-03-19T06:33:49.842Z,100939.88
2023-03-19T06:34:59.114Z,100942.42
2023-03-19T06:36:08.797Z,100948.48
2023-03-19T06:37:19.604Z,100944.72
2023-03-19T06:38:28.628Z,100939.20
2023-03-19T06:40:53.077Z,100934.20
2023-03-19T06:42:02.060Z,100937.99
2023-03-19T06:43:11.374Z,100943.27
2023-03-19T06:45:36.367Z,100942.82
2023-03-19T06:46:45.056Z,100940.52
2023-03-19T06:47:54.156Z,100944.87
2023-03-19T06:49:04.435Z,100949.16
2023-03-19T06:50:16.369Z,100949.84
2023-03-19T06:51:26.785Z,100954.97
2023-03-19T06:52:35.814Z,100949.45
2023-03-19T06:54:59.329Z,100947.95
2023-03-19T06:56:08.211Z,100951.72
2023-03-19T06:57:17.881Z,100955.13
2023-03-19T06:59:41.552Z,100945.60
2023-03-19T07:00:50.596Z,100944.05
2023-03-19T07:01:59.645Z,100952.81
2023-03-19T07:03:09.955Z,100946.49
2023-03-19T07:04:18.781Z,100946.49
2023-03-19T07:05:28.465Z,100948.27
2023-03-19T07:06:38.170Z,100947.41
2023-03-19T07:07:47.626Z,100950.81
2023-03-19T07:08:56.614Z,100952.56
2023-03-19T07:10:07.104Z,100953.33
2023-03-19T07:11:17.244Z,100949.83
2023-03-19T07:13:43.559Z,100943.95
2023-03-19T07:14:52.123Z,100951.30
2023-03-19T07:16:00.891Z,100952.02
2023-03-19T07:17:10.556Z,100950.47
2023-03-19T07:18:19.095Z,100954.12
2023-03-19T07:19:27.754Z,100957.62
2023-03-19T07:20:36.978Z,100950.41
2023-03-19T07:21:46.585Z,100949.41
2023-03-19T07:22:56.245Z,100950.05
2023-03-19T07:25:21.668Z,100947.52
2023-03-19T07:26:31.086Z,100945.20
2023-03-19T07:27:41.800Z,100949.43
2023-03-19T07:28:52.175Z,100951.87
2023-03-19T07:30:01.924Z,100948.02
2023-03-19T07:31:11.502Z,100946.89
2023-03-19T07:32:20.625Z,100947.51
2023-03-19T07:33:29.122Z,100948.16
2023-03-19T07:34:37.945Z,100953.52
2023-03-19T07:35:48.553Z,100951.59
2023-03-19T07:36:57.834Z,100947.86
2023-03-19T07:38:07.361Z,100946.80
2023-03-19T07:39:16.458Z,100948.34
2023-03-19T07:41:41.343Z,100948.50
2023-03-19T07:42:51.757Z,100954.02
2023-03-19T07:44:00.381Z,100951.95
2023-03-19T07:45:10.133Z,100956.10
2023-03-19T07:46:19.470Z,100950.64
2023-03-19T07:47:29.696Z,100948.75
2023-03-19T07:48:40.196Z,100958.38
2023-03-19T07:49:49.626Z,100947.47
2023-03-19T07:50:59.586Z,100950.04
2023-03-19T07:52:09.564Z,100955.24
2023-03-19T07:53:18.908Z,100955.10
2023-03-19T07:54:28.343Z,100940.05
2023-03-19T07:55:38.422Z,100948.08
2023-03-19T07:56:47.355Z,100950.97
2023-03-19T07:57:56.658Z,100950.29
2023-03-19T07:59:07.694Z,100942.34
2023-03-19T08:00:18.612Z,100949.44
2023-03-19T08:01:29.945Z,100945.94
2023-03-19T08:02:38.720Z,100942.41
2023-03-19T08:03:48.250Z,100945.16
2023-03-19T08:04:58.484Z,100945.16
2023-03-19T08:06:07.121Z,100943.20
2023-03-19T08:07:17.492Z,100945.76
2023-03-19T08:08:26.020Z,100944.16
2023-03-19T08:09:34.982Z,100955.03
2023-03-19T08:10:44.771Z,100947.22
2023-03-19T08:11:54.779Z,100949.28
2023-03-19T08:13:05.752Z,100945.86
2023-03-19T08:15:31.158Z,100943.55
2023-03-19T08:16:40.598Z,100947.61
2023-03-19T08:19:07.750Z,100946.30
2023-03-19T08:20:17.014Z,100947.47
2023-03-19T08:21:27.982Z,100944.69
2023-03-19T08:22:38.324Z,100949.83
2023-03-19T08:23:49.006Z,100944.27
2023-03-19T08:24:58.118Z,100945.02
2023-03-19T08:26:07.664Z,100954.78
2023-03-19T08:27:18.728Z,100950.15
2023-03-19T08:28:27.493Z,100944.08
2023-03-19T08:29:36.015Z,100941.41
2023-03-19T08:30:45.198Z,100944.02
2023-03-19T08:31:56.417Z,100933.23
2023-03-19T08:33:05.383Z,100942.87
2023-03-19T08:34:13.961Z,100942.02
2023-03-19T08:35:23.004Z,100934.31
2023-03-19T08:37:54.591Z,100936.23
2023-03-19T08:39:03.710Z,100936.91
2023-03-19T08:41:28.681Z,100935.52
2023-03-19T08:42:44.805Z,100936.73
2023-03-19T08:43:53.019Z,100932.98
2023-03-19T08:45:01.477Z,100930.96
2023-03-19T08:47:25.686Z,100918.86
2023-03-19T08:48:35.474Z,100918.27
2023-03-19T08:49:44.084Z,100919.86
2023-03-19T08:51:02.131Z,100917.19
2023-03-19T08:52:12.301Z,100915.59
2023-03-19T08:53:21.449Z,100916.52
2023-03-19T08:54:30.750Z,100919.27
2023-03-19T08:55:40.718Z,100923.90
2023-03-19T08:56:50.390Z,100924.69
2023-03-19T08:57:58.944Z,100921.94
2023-03-19T08:59:08.723Z,100925.36
2023-03-19T09:00:18.876Z,100926.96
2023-03-19T09:01:27.924Z,100921.68
2023-03-19T09:02:37.481Z,100918.86
2023-03-19T09:03:45.923Z,100911.63
2023-03-19T09:04:54.529Z,100917.64
2023-03-19T09:06:06.456Z,100921.14
2023-03-19T09:07:15.907Z,100919.35
2023-03-19T09:08:24.741Z,100908.69
2023-03-19T09:09:33.363Z,100913.16
2023-03-19T09:10:43.537Z,100905.08
2023-03-19T09:11:52.970Z,100916.60
2023-03-19T09:15:44.080Z,100909.39
2023-03-19T09:16:52.949Z,100902.67
2023-03-19T09:18:02.554Z,100897.39
2023-03-19T09:19:11.198Z,100904.34
2023-03-19T09:20:21.480Z,100903.27
2023-03-19T09:21:32.170Z,100895.00
2023-03-19T09:22:40.813Z,100894.94
2023-03-19T09:23:49.914Z,100902.03
2023-03-19T09:24:58.578Z,100898.42
2023-03-19T09:26:08.269Z,100893.71
2023-03-19T09:27:16.704Z,100888.47
2023-03-19T09:28:26.553Z,100891.45
2023-03-19T09:29:35.770Z,100898.06
2023-03-19T09:30:49.577Z,100890.84
2023-03-19T09:32:00.169Z,100894.34
2023-03-19T09:33:09.397Z,100891.37
2023-03-19T09:34:18.200Z,100886.69
2023-03-19T09:35:28.950Z,100890.07
2023-03-19T09:36:38.035Z,100889.80
2023-03-19T09:39:03.969Z,100879.81
2023-03-19T09:45:18.052Z,100883.34
2023-03-19T09:46:31.919Z,100887.34
2023-03-19T09:47:43.912Z,100879.53
2023-03-19T09:50:14.486Z,100873.95
2023-03-19T09:52:49.459Z,100875.41
2023-03-19T09:54:01.769Z,100886.02
2023-03-19T09:55:45.964Z,100881.75
2023-03-19T09:56:55.730Z,100879.92
2023-03-19T09:58:14.714Z,100873.64
2023-03-19T09:59:24.850Z,100875.47
2023-03-19T10:00:36.972Z,100873.57
2023-03-19T10:03:45.287Z,100869.40
2023-03-19T10:05:17.513Z,100867.95
2023-03-19T10:06:31.787Z,100865.86
2023-03-19T10:07:55.594Z,100864.27
2023-03-19T10:12:16.852Z,100854.86
2023-03-19T10:13:54.889Z,100862.66
2023-03-19T10:16:41.502Z,100845.23
2023-03-19T10:19:16.438Z,100841.63
2023-03-19T10:20:46.563Z,100845.67
2023-03-19T10:22:02.016Z,100847.18
2023-03-19T10:23:14.243Z,100838.14
2023-03-19T10:24:42.354Z,100833.59
2023-03-19T10:25:55.762Z,100833.36
2023-03-19T10:27:22.442Z,100837.63
2023-03-19T10:28:33.706Z,100834.10
2023-03-19T10:29:43.175Z,100829.53
2023-03-19T10:32:44.653Z,100820.83
2023-03-19T10:35:23.583Z,100822.58
2023-03-19T10:36:39.108Z,100824.98
2023-03-19T10:37:54.294Z,100818.82
2023-03-19T10:39:07.331Z,100830.27
2023-03-19T10:40:24.206Z,100817.73
2023-03-19T10:41:58.801Z,100817.81
2023-03-19T10:43:17.954Z,100810.79
2023-03-19T10:45:49.434Z,100810.71
2023-03-19T10:48:18.210Z,100809.00
2023-03-19T10:49:27.352Z,100807.69
2023-03-19T10:50:54.586Z,100812.11
2023-03-19T10:52:04.292Z,100809.28
2023-03-19T10:53:16.691Z,100808.58
2023-03-19T10:54:30.373Z,100797.72
2023-03-19T10:57:05.325Z,100801.31
2023-03-19T10:58:20.063Z,100792.70
2023-03-19T10:59:34.741Z,100786.41
2023-03-19T11:00:46.635Z,100784.59
2023-03-19T11:02:06.039Z,100782.65
2023-03-19T11:04:47.592Z,100774.95
2023-03-19T11:06:17.862Z,100782.85
2023-03-19T11:07:28.569Z,100775.83
2023-03-19T11:08:38.655Z,100772.22
2023-03-19T11:09:50.899Z,100773.03
2023-03-19T11:10:59.531Z,100776.48
2023-03-19T11:13:39.898Z,100767.61
2023-03-19T11:14:52.560Z,100772.64
2023-03-19T11:16:03.205Z,100764.77
2023-03-19T11:17:30.995Z,100770.97
2023-03-19T11:18:48.934Z,100766.50
2023-03-19T11:19:59.796Z,100771.70
2023-03-19T11:21:10.340Z,100768.09
2023-03-19T11:22:27.261Z,100768.30
2023-03-19T11:23:41.937Z,100760.06
2023-03-19T11:24:56.325Z,100763.30
2023-03-19T11:27:35.355Z,100756.20
2023-03-19T11:28:45.062Z,100756.85
2023-03-19T11:29:53.673Z,100758.72
2023-03-19T11:31:15.325Z,100760.67
2023-03-19T11:32:27.936Z,100756.28
2023-03-19T11:33:49.771Z,100747.36
2023-03-19T11:35:05.984Z,100744.55
2023-03-19T11:36:34.184Z,100744.55
2023-03-19T11:37:52.473Z,100737.63
2023-03-19T11:39:31.754Z,100741.16
2023-03-19T11:40:57.085Z,100743.02
2023-03-19T11:42:12.832Z,100736.81
2023-03-19T11:43:37.268Z,100738.39
2023-03-19T11:46:37.784Z,100736.52
2023-03-19T11:47:49.965Z,100738.72
2023-03-19T11:49:05.704Z,100736.77
2023-03-19T11:50:37.371Z,100739.20
2023-03-19T11:51:57.617Z,100721.47
2023-03-19T11:53:13.691Z,100723.45
2023-03-19T11:54:44.996Z,100731.56
2023-03-19T11:58:02.515Z,100720.45
2023-03-19T11:59:34.407Z,100723.59
2023-03-19T12:02:18.306Z,100709.73
2023-03-19T12:03:49.409Z,100718.31
2023-03-19T12:04:59.717Z,100707.52
2023-03-19T12:07:57.101Z,100711.06
2023-03-19T12:10:36.700Z,100710.84
2023-03-19T12:13:52.714Z,100703.74
2023-03-19T12:15:23.214Z,100708.80
2023-03-19T12:16:55.476Z,100706.28
2023-03-19T12:20:06.801Z,100699.11
2023-03-19T12:23:18.048Z,100691.28
2023-03-19T12:25:58.509Z,100691.15
2023-03-19T12:27:15.264Z,100686.89
2023-03-19T12:28:30.275Z,100686.64
2023-03-19T12:29:49.666Z,100690.90
2023-03-19T12:31:23.524Z,100692.56
2023-03-19T12:33:11.735Z,100687.92
2023-03-19T12:35:56.369Z,100681.58
2023-03-19T12:38:28.278Z,100678.64
2023-03-19T12:39:41.281Z,100680.73
2023-03-19T12:42:18.282Z,100665.48
2023-03-19T12:44:59.150Z,100667.05
2023-03-19T12:47:30.826Z,100660.48
2023-03-19T12:50:11.715Z,100660.22
2023-03-19T12:51:24.262Z,100657.17
2023-03-19T12:52:39.207Z,100667.81
2023-03-19T12:54:00.869Z,100661.52
2023-03-19T12:55:21.707Z,100665.13
2023-03-19T12:56:51.735Z,100665.70
2023-03-19T12:59:29.189Z,100652.75
2023-03-19T13:03:35.268Z,100652.75
2023-03-19T13:06:09.548Z,100650.70
2023-03-19T13:07:23.894Z,100653.19
2023-03-19T13:08:38.925Z,100644.98
2023-03-19T13:11:32.828Z,100642.25
2023-03-19T13:12:43.076Z,100640.06
2023-03-19T13:13:58.451Z,100632.70
2023-03-19T13:15:23.248Z,100640.59
2023-03-19T13:16:39.324Z,100639.89
2023-03-19T13:18:17.550Z,100635.38
2023-03-19T13:19:38.863Z,100626.39
2023-03-19T13:21:04.056Z,100631.84
2023-03-19T13:22:16.786Z,100623.72
2023-03-19T13:23:34.719Z,100620.80
2023-03-19T13:24:46.607Z,100612.49
2023-03-19T13:25:59.617Z,100618.47
2023-03-19T13:27:12.633Z,100621.06
2023-03-19T13:28:31.210Z,100614.67
2023-03-19T13:29:43.953Z,100621.06
2023-03-19T13:32:26.401Z,100609.56
2023-03-19T13:33:38.020Z,100615.88
2023-03-19T13:34:47.354Z,100614.73
2023-03-19T13:35:57.691Z,100619.92
2023-03-19T13:37:17.119Z,100614.47
2023-03-19T13:39:50.454Z,100608.33
2023-03-19T13:42:37.939Z,100608.24
2023-03-19T13:43:53.785Z,100609.45
2023-03-19T13:46:27.891Z,100599.87
2023-03-19T13:47:38.504Z,100611.98
2023-03-19T13:48:53.034Z,100604.89
2023-03-19T13:50:11.143Z,100603.95
2023-03-19T13:51:26.584Z,100600.47
2023-03-19T13:52:45.091Z,100596.84
2023-03-19T13:53:56.285Z,100600.28
2023-03-19T13:55:26.712Z,100592.33
2023-03-19T13:59:50.900Z,100588.53
2023-03-19T14:01:01.727Z,100590.97
2023-03-19T14:02:18.436Z,100588.28
2023-03-19T14:05:10.696Z,100574.94
2023-03-19T14:07:54.398Z,100576.21
2023-03-19T14:09:05.391Z,100587.50
2023-03-19T14:11:39.540Z,100580.55
2023-03-19T14:12:49.721Z,100577.53
2023-03-19T14:14:02.353Z,100577.53
2023-03-19T14:16:39.105Z,100574.32
2023-03-19T14:19:30.875Z,100570.00
2023-03-19T14:22:12.236Z,100577.16
2023-03-19T14:23:37.665Z,100571.73
2023-03-19T14:24:56.460Z,100573.75
2023-03-19T14:27:32.124Z,100565.24
2023-03-19T14:29:00.325Z,100570.37
2023-03-19T14:30:13.944Z,100573.90
2023-03-19T14:31:32.427Z,100566.65
2023-03-19T14:32:46.773Z,100571.06
2023-03-19T14:34:18.940Z,100571.83
2023-03-19T14:35:30.944Z,100571.83
2023-03-19T14:36:47.173Z,100570.98
2023-03-19T14:37:56.600Z,100565.61
2023-03-19T14:39:25.064Z,100564.63
2023-03-19T14:40:40.833Z,100559.12
2023-03-19T14:43:26.542Z,100566.42
2023-03-19T14:46:05.375Z,100563.84
2023-03-19T14:47:37.166Z,100568.96
2023-03-19T14:50:34.077Z,100562.37
2023-03-19T14:54:44.958Z,100562.03
2023-03-19T14:55:54.953Z,100563.50
2023-03-19T14:57:21.188Z,100560.83
2023-03-19T14:58:29.712Z,100557.29
2023-03-19T14:59:39.783Z,100567.31
2023-03-19T15:00:52.804Z,100562.14
2023-03-19T15:03:25.298Z,100555.64
2023-03-19T15:04:35.314Z,100559.02
2023-03-19T15:05:43.961Z,100563.63
2023-03-19T15:07:00.901Z,100557.29
2023-03-19T15:08:14.473Z,100555.41
2023-03-19T15:09:32.618Z,100554.27
2023-03-19T15:10:53.492Z,100554.09
2023-03-19T15:12:09.095Z,100558.78
2023-03-19T15:15:22.324Z,100558.94
2023-03-19T15:18:13.956Z,100557.10
2023-03-19T15:19:25.929Z,100564.91
2023-03-19T15:23:27.709Z,100558.23
2023-03-19T15:24:36.102Z,100561.38
2023-03-19T15:25:50.477Z,100562.23
2023-03-19T15:27:00.291Z,100562.23
2023-03-19T15:28:13.783Z,100562.14
2023-03-19T15:29:33.158Z,100562.05
2023-03-19T15:30:53.445Z,100561.10
2023-03-19T15:33:39.471Z,100557.62
2023-03-19T15:34:42.040Z,100552.96
2023-03-19T15:35:55.447Z,100562.84
2023-03-19T15:37:10.397Z,100562.05
2023-03-19T15:38:20.633Z,100556.77
2023-03-19T15:40:51.470Z,100558.84
2023-03-19T15:42:02.317Z,100562.14
2023-03-19T15:43:12.957Z,100555.92
2023-03-19T15:44:29.457Z,100558.78
2023-03-19T15:45:40.332Z,100565.27
2023-03-19T15:46:50.444Z,100558.36
2023-03-19T15:49:44.260Z,100560.40
2023-03-19T15:51:03.802Z,100562.92
2023-03-19T15:52:17.057Z,100563.96
2023-03-19T15:53:29.187Z,100559.63
2023-03-19T15:54:39.654Z,100562.31
2023-03-19T15:55:51.170Z,100564.05
2023-03-19T15:57:00.371Z,100561.37
2023-03-19T15:59:31.093Z,100552.11
2023-03-19T16:00:41.773Z,100555.48
2023-03-19T16:01:50.762Z,100557.48
2023-03-19T16:03:00.182Z,100561.20
2023-03-19T16:05:30.469Z,100563.44
2023-03-19T16:06:40.122Z,100553.48
2023-03-19T16:09:26.772Z,100563.17
2023-03-19T16:10:42.784Z,100557.64
2023-03-19T16:11:53.488Z,100559.47
2023-03-19T16:13:05.003Z,100556.00
2023-03-19T16:14:17.335Z,100562.48
2023-03-19T16:15:38.683Z,100557.38
2023-03-19T16:16:49.209Z,100558.50
2023-03-19T16:18:09.937Z,100553.31
2023-03-19T16:19:39.586Z,100562.12
2023-03-19T16:21:01.145Z,100561.85
2023-03-19T16:22:17.756Z,100557.20
2023-03-19T16:23:39.112Z,100567.75
2023-03-19T16:24:50.059Z,100561.45
2023-03-19T16:26:18.590Z,100556.17
2023-03-19T16:27:39.171Z,100554.34
2023-03-19T16:30:25.845Z,100552.72
2023-03-19T16:31:45.676Z,100556.70
2023-03-19T16:33:03.766Z,100557.47
2023-03-19T16:35:41.072Z,100551.60
2023-03-19T16:36:50.624Z,100555.67